Time;durP1;ratioP1;P1;durP2;ratioP2;P2;SDS_P1;SDS_P2;PMS_P1;PMS_P2;Temp;Humidity;BMP_temperature;BMP_pressure;BME280_temperature;BME280_humidity;BME280_pressure;Samples;Min_cycle;Max_cycle;Signal;HPM_P1;HPM_P2
2023/03/26 00:00:49;;;;;;;5.90;4.07;;;;;;;;;;5080280;28;20305;-65
2023/03/26 00:03:19;;;;;;;5.07;4.30;;;;;;;;;;5080277;28;20202;-65
2023/03/26 00:05:47;;;;;;;6.17;4.00;;;;;;;;;;5080407;28;20206;-64
2023/03/26 00:08:16;;;;;;;4.67;4.10;;;;;;;;;;5080163;28;20689;-64
2023/03/26 00:10:44;;;;;;;5.30;3.83;;;;;;;;;;5079732;28;20249;-63
2023/03/26 00:13:12;;;;;;;10.20;4.03;;;;;;;;;;5080183;28;20297;-63
2023/03/26 00:15:40;;;;;;;7.93;4.57;;;;;;;;;;5080245;28;20240;-64
2023/03/26 00:18:09;;;;;;;7.10;4.23;;;;;;;;;;5080216;28;20237;-64
2023/03/26 00:20:40;;;;;;;7.30;4.20;;;;;;;;;;5079728;28;20804;-64
2023/03/26 00:23:08;;;;;;;9.00;4.50;;;;;;;;;;5080185;28;20206;-64
2023/03/26 00:25:40;;;;;;;6.97;3.90;;;;;;;;;;5080112;28;20289;-64
2023/03/26 00:28:08;;;;;;;5.67;3.80;;;;;;;;;;5079688;28;20210;-64
2023/03/26 00:30:36;;;;;;;7.40;3.70;;;;;;;;;;5079887;28;20230;-63
2023/03/26 00:33:04;;;;;;;5.17;3.67;;;;;;;;;;5079754;28;20267;-63
2023/03/26 00:35:33;;;;;;;8.60;3.97;;;;;;;;;;5079633;28;20206;-64
2023/03/26 00:38:02;;;;;;;7.03;4.10;;;;;;;;;;5079759;28;20260;-64
2023/03/26 00:40:30;;;;;;;6.20;3.80;;;;;;;;;;5079781;28;20218;-64
2023/03/26 00:42:58;;;;;;;6.30;3.93;;;;;;;;;;5076907;28;20245;-64
2023/03/26 00:45:26;;;;;;;4.70;3.30;;;;;;;;;;5071441;28;20316;-64
2023/03/26 00:47:54;;;;;;;6.00;3.63;;;;;;;;;;5079605;28;20264;-64
2023/03/26 00:50:22;;;;;;;11.37;4.00;;;;;;;;;;5079565;28;20318;-64
2023/03/26 00:52:50;;;;;;;6.17;3.47;;;;;;;;;;5079615;28;20202;-64
2023/03/26 00:55:20;;;;;;;3.77;3.10;;;;;;;;;;5079162;28;20245;-64
2023/03/26 00:57:48;;;;;;;5.10;3.77;;;;;;;;;;5078092;28;20228;-64
2023/03/26 01:00:19;;;;;;;4.83;3.37;;;;;;;;;;5079092;28;20276;-64
2023/03/26 01:02:47;;;;;;;3.50;2.87;;;;;;;;;;5079149;28;20238;-64
2023/03/26 01:05:41;;;;;;;5.83;3.87;;;;;;;;;;5079257;28;20213;-64
2023/03/26 01:08:16;;;;;;;7.63;3.20;;;;;;;;;;5079417;28;20233;-64
2023/03/26 01:10:49;;;;;;;5.37;2.73;;;;;;;;;;5078852;28;20232;-64
2023/03/26 01:13:18;;;;;;;4.90;3.00;;;;;;;;;;5078898;28;20206;-64
2023/03/26 01:15:49;;;;;;;5.73;3.23;;;;;;;;;;5079080;28;20212;-64
2023/03/26 01:18:19;;;;;;;4.47;2.67;;;;;;;;;;5079079;28;20206;-64
2023/03/26 01:20:48;;;;;;;6.17;3.20;;;;;;;;;;5078967;28;20225;-64
2023/03/26 01:23:20;;;;;;;4.87;2.80;;;;;;;;;;5095315;28;20236;-64
2023/03/26 01:25:52;;;;;;;5.43;3.13;;;;;;;;;;5099125;28;20236;-64
2023/03/26 01:28:21;;;;;;;5.37;3.00;;;;;;;;;;5098451;28;20568;-64
2023/03/26 01:30:57;;;;;;;4.40;2.77;;;;;;;;;;5098889;28;20320;-64
2023/03/26 01:33:28;;;;;;;5.17;2.60;;;;;;;;;;5098802;28;20237;-64
2023/03/26 01:35:59;;;;;;;4.60;2.80;;;;;;;;;;5098933;28;20288;-63
2023/03/26 01:38:34;;;;;;;5.33;2.40;;;;;;;;;;5098894;28;20214;-64
2023/03/26 01:41:08;;;;;;;4.47;2.70;;;;;;;;;;5080592;28;20300;-63
2023/03/26 01:43:38;;;;;;;7.83;2.77;;;;;;;;;;5077948;28;20206;-63
2023/03/26 01:46:08;;;;;;;5.47;3.17;;;;;;;;;;5078435;28;20206;-62
2023/03/26 01:48:37;;;;;;;5.13;2.90;;;;;;;;;;5078605;28;20206;-63
2023/03/26 01:51:05;;;;;;;7.17;3.53;;;;;;;;;;5078227;28;20234;-63
2023/03/26 01:53:36;;;;;;;4.87;2.50;;;;;;;;;;5078588;28;20214;-64
2023/03/26 01:56:12;;;;;;;6.93;2.70;;;;;;;;;;5078091;28;20241;-62
2023/03/26 01:58:48;;;;;;;7.53;2.70;;;;;;;;;;5078174;28;20210;-63
2023/03/26 02:01:23;;;;;;;3.87;2.57;;;;;;;;;;5078132;28;20224;-63
2023/03/26 02:03:55;;;;;;;4.30;2.67;;;;;;;;;;5078215;28;20205;-63
2023/03/26 02:06:29;;;;;;;5.07;2.63;;;;;;;;;;5078036;28;20233;-64
2023/03/26 02:08:59;;;;;;;5.03;3.37;;;;;;;;;;5077913;28;20201;-64
2023/03/26 02:11:29;;;;;;;6.13;2.80;;;;;;;;;;5077773;28;20268;-63
2023/03/26 02:14:03;;;;;;;4.93;2.13;;;;;;;;;;5077579;28;20212;-64
2023/03/26 02:16:31;;;;;;;4.43;2.33;;;;;;;;;;5077911;28;20738;-63
2023/03/26 02:18:59;;;;;;;4.30;2.23;;;;;;;;;;5077999;28;20210;-63
2023/03/26 02:21:28;;;;;;;4.30;2.47;;;;;;;;;;5078167;28;20202;-63
2023/03/26 02:24:01;;;;;;;6.30;2.30;;;;;;;;;;5077714;28;20634;-63
2023/03/26 02:26:32;;;;;;;3.90;2.10;;;;;;;;;;5078043;28;20209;-64
2023/03/26 02:29:00;;;;;;;5.87;2.20;;;;;;;;;;5077567;28;20233;-63
2023/03/26 02:31:29;;;;;;;5.50;2.00;;;;;;;;;;5077573;28;20232;-63
2023/03/26 02:33:57;;;;;;;4.33;1.80;;;;;;;;;;5077992;28;20269;-63
2023/03/26 02:36:26;;;;;;;4.83;2.20;;;;;;;;;;5077835;28;20205;-63
2023/03/26 02:38:56;;;;;;;5.37;2.07;;;;;;;;;;5077877;28;20206;-63
2023/03/26 02:41:24;;;;;;;5.17;1.97;;;;;;;;;;5077600;28;20232;-64
2023/03/26 02:43:54;;;;;;;9.27;2.33;;;;;;;;;;5074654;28;20202;-62
2023/03/26 02:46:22;;;;;;;6.13;1.70;;;;;;;;;;5068955;28;20228;-63
2023/03/26 02:48:50;;;;;;;4.40;1.87;;;;;;;;;;5077786;28;20233;-62
2023/03/26 02:51:19;;;;;;;4.10;1.70;;;;;;;;;;5077651;28;20322;-63
2023/03/26 02:53:46;;;;;;;9.57;1.83;;;;;;;;;;5077737;28;20216;-63
2023/03/26 02:56:14;;;;;;;4.23;1.80;;;;;;;;;;5077746;28;20214;-64
2023/03/26 02:58:42;;;;;;;3.50;1.83;;;;;;;;;;5077519;28;20221;-64
2023/03/26 03:01:12;;;;;;;3.33;1.50;;;;;;;;;;5077295;28;20572;-64
2023/03/26 03:03:40;;;;;;;5.20;1.87;;;;;;;;;;5077705;28;20202;-62
2023/03/26 03:06:08;;;;;;;4.33;1.43;;;;;;;;;;5077351;28;20578;-64
2023/03/26 03:08:36;;;;;;;4.07;1.40;;;;;;;;;;5077643;28;20206;-63
2023/03/26 03:11:10;;;;;;;5.33;1.50;;;;;;;;;;5077042;28;20701;-63
2023/03/26 03:13:38;;;;;;;3.80;1.83;;;;;;;;;;5077199;28;20618;-64
2023/03/26 03:16:06;;;;;;;5.67;1.70;;;;;;;;;;5077331;28;20210;-65
2023/03/26 03:18:36;;;;;;;5.53;1.60;;;;;;;;;;5077530;28;20237;-65
2023/03/26 03:21:04;;;;;;;5.73;1.73;;;;;;;;;;5078895;28;20285;-64
2023/03/26 03:23:33;;;;;;;4.03;1.77;;;;;;;;;;5081133;28;20202;-62
2023/03/26 03:26:01;;;;;;;3.47;1.63;;;;;;;;;;5081389;28;20234;-62
2023/03/26 03:28:29;;;;;;;3.93;1.40;;;;;;;;;;5080755;28;20241;-63
2023/03/26 03:30:57;;;;;;;3.30;2.00;;;;;;;;;;5081034;28;20308;-63
2023/03/26 03:33:25;;;;;;;3.90;1.83;;;;;;;;;;5081271;28;20228;-63
2023/03/26 03:35:55;;;;;;;3.77;1.77;;;;;;;;;;5081053;28;20245;-64
2023/03/26 03:38:23;;;;;;;4.30;1.50;;;;;;;;;;5081025;28;20271;-63
2023/03/26 03:40:53;;;;;;;3.43;1.87;;;;;;;;;;5080894;28;20229;-64
2023/03/26 03:43:21;;;;;;;4.70;1.97;;;;;;;;;;5080580;28;20256;-64
2023/03/26 03:45:49;;;;;;;5.13;1.60;;;;;;;;;;5080587;28;20636;-64
2023/03/26 03:48:17;;;;;;;4.20;1.73;;;;;;;;;;5080572;28;20202;-63
2023/03/26 03:50:45;;;;;;;6.63;1.50;;;;;;;;;;5080549;28;20331;-63
2023/03/26 03:53:15;;;;;;;3.57;1.40;;;;;;;;;;5080394;28;20222;-63
2023/03/26 03:55:51;;;;;;;4.20;1.93;;;;;;;;;;5080593;28;20206;-64
2023/03/26 03:58:20;;;;;;;3.77;1.67;;;;;;;;;;5067854;28;20573;-63
2023/03/26 04:00:49;;;;;;;3.80;1.47;;;;;;;;;;5080150;28;20767;-63
2023/03/26 04:03:17;;;;;;;4.33;1.67;;;;;;;;;;5080363;28;20277;-64
2023/03/26 04:05:53;;;;;;;4.60;1.70;;;;;;;;;;5080289;28;20614;-62
2023/03/26 04:08:24;;;;;;;3.73;1.53;;;;;;;;;;5080309;28;20206;-64
2023/03/26 04:10:52;;;;;;;4.53;1.33;;;;;;;;;;5080167;28;20740;-64
2023/03/26 04:13:20;;;;;;;4.37;1.60;;;;;;;;;;5080140;28;20313;-65
2023/03/26 04:15:48;;;;;;;8.87;1.50;;;;;;;;;;5079604;28;20202;-64
2023/03/26 04:18:16;;;;;;;6.90;1.70;;;;;;;;;;5081730;28;20256;-64
2023/03/26 04:20:45;;;;;;;6.60;1.67;;;;;;;;;;5087802;28;20701;-63
2023/03/26 04:23:13;;;;;;;5.10;1.50;;;;;;;;;;5089114;28;20217;-65
2023/03/26 04:25:47;;;;;;;4.27;1.73;;;;;;;;;;5087196;28;20201;-64
2023/03/26 04:28:18;;;;;;;2.00;1.43;;;;;;;;;;5085654;28;20697;-64
2023/03/26 04:30:47;;;;;;;1.70;1.23;;;;;;;;;;5087472;28;20233;-63
2023/03/26 04:33:15;;;;;;;3.77;1.60;;;;;;;;;;5087864;28;20938;-64
2023/03/26 04:35:47;;;;;;;5.13;2.13;;;;;;;;;;5089707;28;20209;-64
2023/03/26 04:38:15;;;;;;;8.73;1.70;;;;;;;;;;5085182;28;20209;-63
2023/03/26 04:40:46;;;;;;;3.40;1.60;;;;;;;;;;5079383;28;20227;-64
2023/03/26 04:43:15;;;;;;;6.30;1.47;;;;;;;;;;5078757;28;20199;-64
2023/03/26 04:45:44;;;;;;;4.87;1.63;;;;;;;;;;5073062;28;20249;-63
2023/03/26 04:48:13;;;;;;;5.80;1.70;;;;;;;;;;5074881;28;20237;-63
2023/03/26 04:50:41;;;;;;;5.23;1.50;;;;;;;;;;5079148;28;20634;-63
2023/03/26 04:53:12;;;;;;;2.20;1.30;;;;;;;;;;5079534;28;20308;-64
2023/03/26 04:55:43;;;;;;;2.27;1.37;;;;;;;;;;5079421;28;20213;-63
2023/03/26 04:58:13;;;;;;;5.37;1.50;;;;;;;;;;5078936;28;20209;-62
2023/03/26 05:00:42;;;;;;;5.13;1.80;;;;;;;;;;5079392;28;20572;-65
2023/03/26 05:03:10;;;;;;;3.80;1.47;;;;;;;;;;5079474;28;20281;-64
2023/03/26 05:05:38;;;;;;;5.83;1.60;;;;;;;;;;5078974;28;20221;-63
2023/03/26 05:08:06;;;;;;;3.80;1.40;;;;;;;;;;5079373;28;20213;-64
2023/03/26 05:10:34;;;;;;;3.27;1.63;;;;;;;;;;5078852;28;20721;-63
2023/03/26 05:13:02;;;;;;;3.50;1.20;;;;;;;;;;5078785;28;20261;-63
2023/03/26 05:15:32;;;;;;;6.03;1.47;;;;;;;;;;5079231;28;20224;-63
2023/03/26 05:18:00;;;;;;;2.83;2.23;;;;;;;;;;5076930;28;20204;-65
2023/03/26 05:20:30;;;;;;;5.17;1.80;;;;;;;;;;5077121;28;20218;-63
2023/03/26 05:22:57;;;;;;;5.80;2.00;;;;;;;;;;5077229;28;20234;-63
2023/03/26 05:25:25;;;;;;;6.20;1.83;;;;;;;;;;5077144;28;20218;-63
2023/03/26 05:27:53;;;;;;;8.23;1.73;;;;;;;;;;5076952;28;20212;-63
2023/03/26 05:30:21;;;;;;;3.67;1.63;;;;;;;;;;5073212;28;20250;-64
2023/03/26 05:32:51;;;;;;;4.53;1.80;;;;;;;;;;5077978;28;20221;-64
2023/03/26 05:35:19;;;;;;;3.37;1.73;;;;;;;;;;5078561;28;20198;-64
2023/03/26 05:37:48;;;;;;;3.77;1.57;;;;;;;;;;5078797;28;20203;-63
2023/03/26 05:40:16;;;;;;;4.83;1.90;;;;;;;;;;5078428;28;20229;-63
2023/03/26 05:42:44;;;;;;;6.40;1.90;;;;;;;;;;5078248;28;20242;-64
2023/03/26 05:45:13;;;;;;;3.20;1.80;;;;;;;;;;5078379;28;20198;-63
2023/03/26 05:47:41;;;;;;;4.83;1.80;;;;;;;;;;5078962;28;20202;-65
2023/03/26 05:50:11;;;;;;;3.00;1.10;;;;;;;;;;5079217;28;20268;-64
2023/03/26 05:52:39;;;;;;;3.47;1.50;;;;;;;;;;5078310;28;20665;-64
2023/03/26 05:55:08;;;;;;;7.00;1.90;;;;;;;;;;5078634;28;20293;-65
2023/03/26 05:57:36;;;;;;;5.17;1.67;;;;;;;;;;5077642;28;20240;-63
2023/03/26 06:00:07;;;;;;;4.97;2.10;;;;;;;;;;5078416;28;20241;-64
2023/03/26 06:02:35;;;;;;;4.73;1.50;;;;;;;;;;5077137;28;20241;-62
2023/03/26 06:05:04;;;;;;;5.13;2.07;;;;;;;;;;5078385;28;20206;-63
2023/03/26 06:07:34;;;;;;;5.70;2.20;;;;;;;;;;5078025;28;20209;-64
2023/03/26 06:10:02;;;;;;;1.83;1.33;;;;;;;;;;5078054;28;20246;-64
2023/03/26 06:12:30;;;;;;;4.57;1.57;;;;;;;;;;5077691;28;20213;-64
2023/03/26 06:14:58;;;;;;;4.23;1.73;;;;;;;;;;5078148;28;20574;-64
2023/03/26 06:17:26;;;;;;;2.93;1.63;;;;;;;;;;5066219;28;20680;-63
2023/03/26 06:19:54;;;;;;;1.80;1.23;;;;;;;;;;5077673;28;20232;-64
2023/03/26 06:22:22;;;;;;;4.90;1.43;;;;;;;;;;5067958;28;20651;-64
2023/03/26 06:24:52;;;;;;;3.93;1.70;;;;;;;;;;5077498;28;20233;-63
2023/03/26 06:27:20;;;;;;;3.80;1.37;;;;;;;;;;5077304;28;20568;-63
2023/03/26 06:29:48;;;;;;;5.30;1.30;;;;;;;;;;5077707;28;20233;-64
2023/03/26 06:32:16;;;;;;;3.13;1.23;;;;;;;;;;5076861;28;20208;-63
2023/03/26 06:34:47;;;;;;;4.37;1.77;;;;;;;;;;5079721;28;20219;-64
2023/03/26 06:37:15;;;;;;;4.37;1.83;;;;;;;;;;5074818;28;20198;-64
2023/03/26 06:39:43;;;;;;;4.30;1.63;;;;;;;;;;5078004;28;20221;-62
2023/03/26 06:42:13;;;;;;;3.67;1.40;;;;;;;;;;5076606;28;20657;-62
2023/03/26 06:44:41;;;;;;;1.73;1.50;;;;;;;;;;5077248;28;20281;-63
2023/03/26 06:47:08;;;;;;;4.40;1.50;;;;;;;;;;5077545;28;20206;-62
2023/03/26 06:49:36;;;;;;;2.97;1.37;;;;;;;;;;5077483;28;20230;-62
2023/03/26 06:52:05;;;;;;;4.33;2.10;;;;;;;;;;5074589;28;20198;-61
2023/03/26 06:54:33;;;;;;;4.87;1.40;;;;;;;;;;5075832;28;20260;-61
2023/03/26 06:57:00;;;;;;;4.77;1.90;;;;;;;;;;5078151;28;20233;-61
2023/03/26 06:59:30;;;;;;;4.37;1.77;;;;;;;;;;5082372;28;20254;-61
2023/03/26 07:01:58;;;;;;;2.40;1.30;;;;;;;;;;5081357;28;20206;-61
2023/03/26 07:04:26;;;;;;;5.03;1.23;;;;;;;;;;5083715;28;20286;-61
2023/03/26 07:06:54;;;;;;;2.40;2.30;;;;;;;;;;5081353;28;20208;-61
2023/03/26 07:09:22;;;;;;;3.57;1.53;;;;;;;;;;5081796;28;20233;-61
2023/03/26 07:11:50;;;;;;;3.57;1.30;;;;;;;;;;5095216;28;20206;-61
2023/03/26 07:14:18;;;;;;;3.30;1.10;;;;;;;;;;5101820;28;20312;-63
2023/03/26 07:16:47;;;;;;;2.40;1.20;;;;;;;;;;5089752;28;20684;-61
2023/03/26 07:19:15;;;;;;;2.37;1.10;;;;;;;;;;5079839;28;20252;-60
2023/03/26 07:21:45;;;;;;;0.97;0.90;;;;;;;;;;5080833;28;20665;-60
2023/03/26 07:24:13;;;;;;;1.63;1.30;;;;;;;;;;5081395;28;20206;-62
2023/03/26 07:26:48;;;;;;;3.17;1.57;;;;;;;;;;5080709;28;20339;-62
2023/03/26 07:29:18;;;;;;;3.40;1.60;;;;;;;;;;5080899;28;20236;-61
2023/03/26 07:31:51;;;;;;;3.23;1.73;;;;;;;;;;5081004;28;20197;-61
2023/03/26 07:34:26;;;;;;;2.67;1.70;;;;;;;;;;5078594;28;20584;-61
2023/03/26 07:36:57;;;;;;;4.50;1.50;;;;;;;;;;5079528;28;20607;-60
2023/03/26 07:39:33;;;;;;;4.40;1.80;;;;;;;;;;5082744;28;20218;-61
2023/03/26 07:42:04;;;;;;;3.00;2.13;;;;;;;;;;5076221;28;20277;-62
2023/03/26 07:44:39;;;;;;;3.77;1.60;;;;;;;;;;5081052;28;20207;-61
2023/03/26 07:47:15;;;;;;;3.37;1.60;;;;;;;;;;5080882;28;20221;-63
2023/03/26 07:49:43;;;;;;;6.47;1.27;;;;;;;;;;5074455;28;20223;-63
2023/03/26 07:52:11;;;;;;;3.87;1.23;;;;;;;;;;5075623;28;20238;-63
2023/03/26 07:54:39;;;;;;;2.80;1.50;;;;;;;;;;5080439;28;20240;-63
2023/03/26 07:57:13;;;;;;;4.20;1.43;;;;;;;;;;5079658;28;20292;-62
2023/03/26 07:59:43;;;;;;;5.33;1.87;;;;;;;;;;5076582;28;20227;-62
2023/03/26 08:02:26;;;;;;;4.07;2.70;;;;;;;;;;5078250;28;20244;-63
2023/03/26 08:05:02;;;;;;;5.43;1.77;;;;;;;;;;5080039;28;20202;-63
2023/03/26 08:07:39;;;;;;;1.40;1.20;;;;;;;;;;5080012;28;20548;-62
2023/03/26 08:10:12;;;;;;;2.30;1.23;;;;;;;;;;5080074;28;20237;-63
2023/03/26 08:12:47;;;;;;;3.17;1.60;;;;;;;;;;5080157;28;20221;-62
2023/03/26 08:15:21;;;;;;;2.23;1.50;;;;;;;;;;5080005;28;20221;-63
2023/03/26 08:17:52;;;;;;;1.93;1.60;;;;;;;;;;5079006;28;20252;-61
2023/03/26 08:20:25;;;;;;;2.87;1.40;;;;;;;;;;5067053;28;20222;-62
2023/03/26 08:22:55;;;;;;;4.93;1.50;;;;;;;;;;5080094;28;20241;-61
2023/03/26 08:25:28;;;;;;;0.90;0.90;;;;;;;;;;5079807;28;20252;-63
2023/03/26 08:28:04;;;;;;;1.67;1.00;;;;;;;;;;5079403;28;20233;-63
2023/03/26 08:30:32;;;;;;;2.27;0.80;;;;;;;;;;5079509;28;20229;-63
2023/03/26 08:33:05;;;;;;;1.20;1.07;;;;;;;;;;5079363;28;20237;-63
2023/03/26 08:35:33;;;;;;;0.70;0.70;;;;;;;;;;5072947;28;20230;-65
2023/03/26 08:38:02;;;;;;;1.00;0.90;;;;;;;;;;5079360;28;20293;-61
2023/03/26 08:40:39;;;;;;;0.70;0.70;;;;;;;;;;5079608;28;20225;-62
2023/03/26 08:43:26;;;;;;;0.67;0.67;;;;;;;;;;5079295;28;20216;-62
2023/03/26 08:46:09;;;;;;;0.60;0.60;;;;;;;;;;5076643;28;20208;-61
2023/03/26 08:48:55;;;;;;;1.33;0.73;;;;;;;;;;5077718;28;20213;-62
2023/03/26 08:51:35;;;;;;;1.40;0.93;;;;;;;;;;5078814;28;20237;-62
2023/03/26 08:54:15;;;;;;;1.23;0.80;;;;;;;;;;5079293;28;20202;-61
2023/03/26 08:56:51;;;;;;;1.80;0.77;;;;;;;;;;5079152;28;20205;-61
2023/03/26 08:59:37;;;;;;;0.70;0.60;;;;;;;;;;5078994;28;20260;-62
2023/03/26 09:02:21;;;;;;;0.60;0.60;;;;;;;;;;5079093;28;20212;-62
2023/03/26 09:05:18;;;;;;;2.07;0.50;;;;;;;;;;5079261;28;20208;-63
2023/03/26 09:08:07;;;;;;;2.13;0.90;;;;;;;;;;5074774;28;20812;-63
2023/03/26 09:10:46;;;;;;;0.80;0.67;;;;;;;;;;5056866;28;20303;-63
2023/03/26 09:13:33;;;;;;;0.80;0.80;;;;;;;;;;5078724;28;20206;-61
2023/03/26 09:16:11;;;;;;;0.53;0.50;;;;;;;;;;5078442;28;20218;-62
2023/03/26 09:18:56;;;;;;;0.97;0.70;;;;;;;;;;5098524;28;20205;-62
2023/03/26 09:21:48;;;;;;;1.60;1.50;;;;;;;;;;5098595;28;20233;-62
2023/03/26 09:24:36;;;;;;;2.67;1.00;;;;;;;;;;5097790;28;20209;-62
2023/03/26 09:27:14;;;;;;;2.00;0.60;;;;;;;;;;5067426;28;20219;-63
2023/03/26 09:29:56;;;;;;;1.40;0.70;;;;;;;;;;5078643;28;20262;-61
2023/03/26 09:32:35;;;;;;;2.13;0.90;;;;;;;;;;5078519;28;20319;-62
2023/03/26 09:35:10;;;;;;;4.20;1.90;;;;;;;;;;5077957;28;20226;-61
2023/03/26 09:37:54;;;;;;;12.70;7.87;;;;;;;;;;5077195;28;20198;-62
2023/03/26 09:40:28;;;;;;;11.43;6.47;;;;;;;;;;5078585;28;20218;-62
2023/03/26 09:43:02;;;;;;;15.63;8.83;;;;;;;;;;5075692;28;20222;-61
2023/03/26 09:45:45;;;;;;;5.23;3.60;;;;;;;;;;5079163;28;20202;-61
2023/03/26 09:48:23;;;;;;;1.47;0.60;;;;;;;;;;5077444;28;20289;-62
2023/03/26 09:50:56;;;;;;;1.50;0.93;;;;;;;;;;5082458;28;21861;-61
2023/03/26 09:53:40;;;;;;;1.23;0.60;;;;;;;;;;5079228;28;20222;-62
2023/03/26 09:56:15;;;;;;;0.90;0.50;;;;;;;;;;5078870;28;20222;-62
2023/03/26 09:58:55;;;;;;;1.50;0.60;;;;;;;;;;5076259;28;20205;-62
2023/03/26 10:01:28;;;;;;;1.20;0.60;;;;;;;;;;5082346;28;20232;-61
2023/03/26 10:04:00;;;;;;;1.10;0.47;;;;;;;;;;5083043;28;20201;-62
2023/03/26 10:06:44;;;;;;;1.43;0.60;;;;;;;;;;5085656;28;20243;-61
2023/03/26 10:09:22;;;;;;;2.20;0.70;;;;;;;;;;5087090;28;20328;-61
2023/03/26 10:12:05;;;;;;;1.70;0.97;;;;;;;;;;5084373;28;20205;-63
2023/03/26 10:14:40;;;;;;;1.73;0.60;;;;;;;;;;5083594;28;20202;-62
2023/03/26 10:17:19;;;;;;;0.97;0.87;;;;;;;;;;5083832;28;20221;-62
2023/03/26 10:19:58;;;;;;;1.83;0.90;;;;;;;;;;5082775;28;20697;-61
2023/03/26 10:22:34;;;;;;;1.00;1.00;;;;;;;;;;5085213;28;20200;-61
2023/03/26 10:25:12;;;;;;;0.80;0.80;;;;;;;;;;5095290;28;20289;-60
2023/03/26 10:27:45;;;;;;;1.77;0.73;;;;;;;;;;5070164;28;20206;-62
2023/03/26 10:30:22;;;;;;;0.60;0.60;;;;;;;;;;5066580;28;20230;-62
2023/03/26 10:32:54;;;;;;;1.23;0.80;;;;;;;;;;5077138;28;20202;-62
2023/03/26 10:35:26;;;;;;;1.23;0.90;;;;;;;;;;5077319;28;20597;-62
2023/03/26 10:38:08;;;;;;;1.37;0.80;;;;;;;;;;5077631;28;20218;-62
2023/03/26 10:40:41;;;;;;;2.03;0.80;;;;;;;;;;5076808;28;20363;-60
2023/03/26 10:43:28;;;;;;;3.20;1.30;;;;;;;;;;5068065;28;20692;-61
2023/03/26 10:46:09;;;;;;;3.00;1.03;;;;;;;;;;5076954;28;20195;-62
2023/03/26 10:48:44;;;;;;;0.63;0.63;;;;;;;;;;5077336;28;20242;-61
2023/03/26 10:51:21;;;;;;;2.00;1.70;;;;;;;;;;5081322;28;20224;-62
2023/03/26 10:53:50;;;;;;;4.33;2.40;;;;;;;;;;5077060;28;20205;-61
2023/03/26 10:56:21;;;;;;;3.97;2.13;;;;;;;;;;5076444;28;20249;-63
2023/03/26 10:58:49;;;;;;;1.43;1.33;;;;;;;;;;5070247;28;20307;-63
2023/03/26 11:01:24;;;;;;;1.33;1.27;;;;;;;;;;5076925;28;20317;-64
2023/03/26 11:03:53;;;;;;;1.13;0.83;;;;;;;;;;5077291;28;20216;-62
2023/03/26 11:06:26;;;;;;;0.77;0.73;;;;;;;;;;5077679;28;20206;-60
2023/03/26 11:08:56;;;;;;;1.53;0.70;;;;;;;;;;5077172;28;20622;-63
2023/03/26 11:11:28;;;;;;;1.23;1.03;;;;;;;;;;5076927;28;20317;-61
2023/03/26 11:14:00;;;;;;;2.57;0.50;;;;;;;;;;5077277;28;20631;-64
2023/03/26 11:16:34;;;;;;;2.20;0.77;;;;;;;;;;5077237;28;20230;-64
2023/03/26 11:19:05;;;;;;;0.70;0.70;;;;;;;;;;5077434;28;20209;-63
2023/03/26 11:21:35;;;;;;;1.70;0.60;;;;;;;;;;5066047;28;20593;-64
2023/03/26 11:24:11;;;;;;;0.77;0.70;;;;;;;;;;5067533;28;20218;-66
2023/03/26 11:26:48;;;;;;;2.17;0.60;;;;;;;;;;5076806;28;20202;-64
2023/03/26 11:29:23;;;;;;;0.93;0.63;;;;;;;;;;5076879;28;20257;-65
2023/03/26 11:32:04;;;;;;;0.60;0.60;;;;;;;;;;5076875;28;20284;-64
2023/03/26 11:34:35;;;;;;;0.53;0.53;;;;;;;;;;5072846;28;20584;-64
2023/03/26 11:37:06;;;;;;;1.70;0.50;;;;;;;;;;5076907;28;20684;-63
2023/03/26 11:39:37;;;;;;;0.97;0.70;;;;;;;;;;5076709;28;20302;-63
2023/03/26 11:42:07;;;;;;;3.37;1.13;;;;;;;;;;5078564;28;20206;-63
2023/03/26 11:44:37;;;;;;;1.87;0.93;;;;;;;;;;5080170;28;20226;-63
2023/03/26 11:47:09;;;;;;;1.77;0.90;;;;;;;;;;5073243;28;20224;-63
2023/03/26 11:49:37;;;;;;;2.83;0.80;;;;;;;;;;5082004;28;20226;-63
2023/03/26 11:52:06;;;;;;;2.87;1.20;;;;;;;;;;5079840;28;20210;-63
2023/03/26 11:54:35;;;;;;;55.90;33.87;;;;;;;;;;5080266;28;20352;-63
2023/03/26 11:57:05;;;;;;;5.57;3.67;;;;;;;;;;5079559;28;20741;-63
2023/03/26 11:59:36;;;;;;;3.37;1.03;;;;;;;;;;5080406;28;20261;-63
2023/03/26 12:02:31;;;;;;;2.13;0.77;;;;;;;;;;5083488;28;20281;-63
2023/03/26 12:05:13;;;;;;;1.37;0.80;;;;;;;;;;5092844;28;20281;-63
2023/03/26 12:07:46;;;;;;;2.17;1.00;;;;;;;;;;5087056;28;20669;-62
2023/03/26 12:10:28;;;;;;;1.30;0.70;;;;;;;;;;5100259;28;20263;-62
2023/03/26 12:12:58;;;;;;;3.70;1.00;;;;;;;;;;5100275;28;20706;-63
2023/03/26 12:15:26;;;;;;;1.33;0.70;;;;;;;;;;5100622;28;20236;-60
2023/03/26 12:17:57;;;;;;;2.00;0.70;;;;;;;;;;5100353;28;20229;-61
2023/03/26 12:20:37;;;;;;;1.90;0.70;;;;;;;;;;5100606;28;20229;-61
2023/03/26 12:23:06;;;;;;;0.70;0.70;;;;;;;;;;5100980;28;20243;-60
2023/03/26 12:25:36;;;;;;;1.03;1.03;;;;;;;;;;5100650;28;20570;-60
2023/03/26 12:28:05;;;;;;;0.90;0.70;;;;;;;;;;5099965;28;20346;-61
2023/03/26 12:30:34;;;;;;;3.47;0.80;;;;;;;;;;5099996;28;20257;-62
2023/03/26 12:33:05;;;;;;;1.57;0.60;;;;;;;;;;5099988;28;20237;-60
2023/03/26 12:35:34;;;;;;;1.40;0.60;;;;;;;;;;5100469;28;20255;-61
2023/03/26 12:38:17;;;;;;;0.97;0.80;;;;;;;;;;5100091;28;20225;-60
2023/03/26 12:40:46;;;;;;;2.63;0.80;;;;;;;;;;5084063;28;20589;-62
2023/03/26 12:43:21;;;;;;;1.03;0.67;;;;;;;;;;5066724;28;20199;-61
2023/03/26 12:46:26;;;;;;;2.60;0.70;;;;;;;;;;5079580;28;20213;-61
2023/03/26 12:49:15;;;;;;;1.83;1.63;;;;;;;;;;5072170;28;20203;-64
2023/03/26 12:51:48;;;;;;;1.73;0.73;;;;;;;;;;5067577;28;20202;-62
2023/03/26 12:54:25;;;;;;;1.50;0.60;;;;;;;;;;5078551;28;20228;-61
2023/03/26 12:57:01;;;;;;;0.70;0.60;;;;;;;;;;5075106;28;20213;-61
2023/03/26 12:59:45;;;;;;;1.93;0.70;;;;;;;;;;5074052;28;20583;-62
2023/03/26 13:02:24;;;;;;;1.93;0.67;;;;;;;;;;5070652;28;20711;-62
2023/03/26 13:05:00;;;;;;;1.00;0.73;;;;;;;;;;5077322;28;20210;-62
2023/03/26 13:07:42;;;;;;;3.03;0.80;;;;;;;;;;5079323;28;20285;-62
2023/03/26 13:10:26;;;;;;;0.50;0.50;;;;;;;;;;5078885;28;20238;-62
2023/03/26 13:12:59;;;;;;;3.63;0.87;;;;;;;;;;5078569;28;20312;-62
2023/03/26 13:15:31;;;;;;;1.40;0.80;;;;;;;;;;5078937;28;20289;-62
2023/03/26 13:18:06;;;;;;;2.93;0.73;;;;;;;;;;5076782;28;20260;-62
2023/03/26 13:20:45;;;;;;;0.80;0.80;;;;;;;;;;5078803;28;20303;-62
2023/03/26 13:23:19;;;;;;;3.13;0.93;;;;;;;;;;5078888;28;20224;-62
2023/03/26 13:25:51;;;;;;;0.50;0.50;;;;;;;;;;5079054;28;20202;-61
2023/03/26 13:28:25;;;;;;;1.27;1.00;;;;;;;;;;5081512;28;20193;-59
2023/03/26 13:30:58;;;;;;;4.80;1.07;;;;;;;;;;5082123;28;20226;-60
2023/03/26 13:33:32;;;;;;;1.10;0.80;;;;;;;;;;5087775;28;20221;-61
2023/03/26 13:36:05;;;;;;;1.07;0.73;;;;;;;;;;5086100;28;20209;-61
2023/03/26 13:38:55;;;;;;;1.37;0.63;;;;;;;;;;5088138;28;20217;-60
2023/03/26 13:41:33;;;;;;;2.23;1.00;;;;;;;;;;5087420;28;20205;-62
2023/03/26 13:44:05;;;;;;;2.63;0.77;;;;;;;;;;5085252;28;20204;-60
2023/03/26 13:46:35;;;;;;;2.43;1.10;;;;;;;;;;5087402;28;20213;-60
2023/03/26 13:49:04;;;;;;;1.23;0.80;;;;;;;;;;5078338;28;20226;-59
2023/03/26 13:51:37;;;;;;;2.07;0.70;;;;;;;;;;5093415;28;20202;-61
2023/03/26 13:54:11;;;;;;;3.70;0.90;;;;;;;;;;5098532;28;20225;-59
2023/03/26 13:56:41;;;;;;;1.00;0.90;;;;;;;;;;5082215;28;20209;-62
2023/03/26 13:59:14;;;;;;;2.30;0.63;;;;;;;;;;5078016;28;20768;-60
2023/03/26 14:01:46;;;;;;;2.83;1.07;;;;;;;;;;5078302;28;20237;-61
2023/03/26 14:04:20;;;;;;;0.90;0.70;;;;;;;;;;5078339;28;20213;-60
2023/03/26 14:06:56;;;;;;;2.67;1.33;;;;;;;;;;5076192;28;20238;-61
2023/03/26 14:09:27;;;;;;;0.90;0.40;;;;;;;;;;5068243;28;20229;-61
2023/03/26 14:12:02;;;;;;;3.83;0.87;;;;;;;;;;5063299;28;20214;-61
2023/03/26 14:14:33;;;;;;;2.40;0.90;;;;;;;;;;5078305;28;20205;-61
2023/03/26 14:17:04;;;;;;;3.20;1.07;;;;;;;;;;5077999;28;20244;-61
2023/03/26 14:19:47;;;;;;;2.40;1.17;;;;;;;;;;5078358;28;20253;-61
2023/03/26 14:22:25;;;;;;;2.07;1.03;;;;;;;;;;5077955;28;20223;-61
2023/03/26 14:25:17;;;;;;;2.00;1.03;;;;;;;;;;5077729;28;20209;-61
2023/03/26 14:27:54;;;;;;;2.20;0.53;;;;;;;;;;5077533;28;20645;-62
2023/03/26 14:30:37;;;;;;;1.00;0.67;;;;;;;;;;5077735;28;20222;-61
2023/03/26 14:33:19;;;;;;;1.50;0.50;;;;;;;;;;5077846;28;20293;-61
2023/03/26 14:35:59;;;;;;;0.90;0.50;;;;;;;;;;5077755;28;20210;-61
2023/03/26 14:38:44;;;;;;;1.17;0.50;;;;;;;;;;5077611;28;20618;-61
2023/03/26 14:41:19;;;;;;;0.67;0.67;;;;;;;;;;5077416;28;20222;-61
2023/03/26 14:44:05;;;;;;;1.33;0.63;;;;;;;;;;5077989;28;20255;-61
2023/03/26 14:46:40;;;;;;;3.73;2.03;;;;;;;;;;5077710;28;20210;-61
2023/03/26 14:49:19;;;;;;;0.70;0.50;;;;;;;;;;5077489;28;20205;-61
2023/03/26 14:51:53;;;;;;;0.83;0.60;;;;;;;;;;5077548;28;20205;-60
2023/03/26 14:54:24;;;;;;;0.50;0.23;;;;;;;;;;5077565;28;20210;-61
2023/03/26 14:56:58;;;;;;;0.73;0.50;;;;;;;;;;5077386;28;20210;-61
2023/03/26 14:59:56;;;;;;;1.00;0.50;;;;;;;;;;5077227;28;20253;-61
2023/03/26 15:02:39;;;;;;;1.23;0.70;;;;;;;;;;5015547;28;20250;-62
2023/03/26 15:05:27;;;;;;;1.17;0.70;;;;;;;;;;5070129;28;20721;-61
2023/03/26 15:08:17;;;;;;;1.07;0.53;;;;;;;;;;5052108;28;20205;-61
2023/03/26 15:10:54;;;;;;;2.80;0.67;;;;;;;;;;5077401;28;20334;-61
2023/03/26 15:13:39;;;;;;;1.27;0.43;;;;;;;;;;5077599;28;20271;-61
2023/03/26 15:16:10;;;;;;;2.27;0.70;;;;;;;;;;5077605;28;20210;-61